Terminal Aerodrome Forecast
Issued by NWS

Home | Current Version | Previous Version | Text Only | Print | Product List | Glossary On
Versions: 1 2 3 4 5 6 7 8 9 10 11 12 13 14 15 16
000
FTUS43 KGRR 301740
TAFBTL
TAF
KBTL 301740Z 3018/3118 24005KT P6SM VCTS SCT025CB BKN100
     FM302330 24004KT P6SM BKN100
     FM310800 26004KT 3SM BR VCSH BKN015
     FM311200 30004KT 3SM BR VCSH OVC009=

USA.gov is the U.S. government's official web portal to all federal, state and local government web resources and services.